Libuse, LA (71348)

5:58 PM CDT on August 28, 2016 (GMT -0500)
Cherokee Village | | Change Station

Elev 77 ft 31.26 °N, 92.48 °W | Updated 5 seconds ago

Clear
Clear
87.6 °F
Feels Like 100 °F
N
1.3
Wind Variable Wind from ESE
Gusts 2.5 mph

Today
High -- | Low -- °F
--% Chance of Precip.
Yesterday
High -- | Low -- °F
Precip. -- in
Pressure 29.95 in
Visibility 10.0 miles
Clouds Clear
Heat Index 100 °F
Dew Point 77 °F
Humidity 71%
Rainfall 0.00 in
Snow Depth Not available.
6:43 AM 7:37 PM
Waning Crescent, 13% visible
METAR KAEX 282253Z AUTO 04004KT 10SM CLR 30/24 A2994 RMK AO2 LTG DSNT SE SLP140 T03000239
Pressure 29.95 in
Visibility 10.0 miles
Clouds Clear
Heat Index 100 °F
Dew Point 77 °F
Humidity 71%
Rainfall 0.00 in
Snow Depth Not available.
6:43 AM 7:37 PM
Waning Crescent, 13% visible
METAR KAEX 282253Z AUTO 04004KT 10SM CLR 30/24 A2994 RMK AO2 LTG DSNT SE SLP140 T03000239

10-Day Weather Forecast

Almanac

Astronomy

Aug. 28, 2016 Rise Set
Actual Time
Civil Twilight
Nautical Twilight
Astronomical Twilight
Moon
Length of Visible Light
Length of Day
Tomorrow will be .
, % of the Moon is Illuminated

Today's Extremes

State Highs State Lows

Community

WunderPhotos

Upload Photos

1,935,705 photos uploaded!

WunderBlog® & News

Nearby

Air Quality

  Air Quality AQ Index Pollutant
Not available.

Snow Depth

Station Depth Elevation

Earthquake Activity

City Distance Mag. Time & Date
Minimum magnitude displayed is 2.5.

Coastal Water Temperatures

Place Temperature

Stations

Nearby Weather Stations

Station Location Temp. Windchill Dew Point Humidity Wind Precip. Elev Updated Type
                   

Watches & Warnings

There are currently no watches in effect.